sensor_id;sensor_type;location;lat;lon;timestamp;pressure;altitude;pressure_sealevel;temperature;humidity
77017;BME280;65949;53.132;17.930;2023-04-06T00:02:09;101829.12;;;-1.20;65.90
77017;BME280;65949;53.132;17.930;2023-04-06T00:04:36;101827.42;;;-1.24;65.87
77017;BME280;65949;53.132;17.930;2023-04-06T00:07:03;101827.08;;;-1.27;65.89
77017;BME280;65949;53.132;17.930;2023-04-06T00:09:30;101825.46;;;-1.32;65.92
77017;BME280;65949;53.132;17.930;2023-04-06T00:11:56;101826.92;;;-1.36;65.94
77017;BME280;65949;53.132;17.930;2023-04-06T00:14:24;101824.72;;;-1.40;66.10
77017;BME280;65949;53.132;17.930;2023-04-06T00:16:50;101826.58;;;-1.40;66.09
77017;BME280;65949;53.132;17.930;2023-04-06T00:19:17;101825.52;;;-1.37;66.24
77017;BME280;65949;53.132;17.930;2023-04-06T00:21:43;101825.48;;;-1.36;66.20
77017;BME280;65949;53.132;17.930;2023-04-06T00:24:11;101826.69;;;-1.34;66.13
77017;BME280;65949;53.132;17.930;2023-04-06T00:26:37;101824.38;;;-1.31;66.19
77017;BME280;65949;53.132;17.930;2023-04-06T00:29:04;101826.94;;;-1.28;66.27
77017;BME280;65949;53.132;17.930;2023-04-06T00:31:30;101827.66;;;-1.25;66.11
77017;BME280;65949;53.132;17.930;2023-04-06T00:33:58;101829.11;;;-1.24;66.05
77017;BME280;65949;53.132;17.930;2023-04-06T00:36:24;101828.91;;;-1.25;66.32
77017;BME280;65949;53.132;17.930;2023-04-06T00:38:52;101825.63;;;-1.28;66.31
77017;BME280;65949;53.132;17.930;2023-04-06T00:41:18;101824.55;;;-1.31;66.46
77017;BME280;65949;53.132;17.930;2023-04-06T00:43:47;101823.12;;;-1.34;66.60
77017;BME280;65949;53.132;17.930;2023-04-06T00:46:13;101822.80;;;-1.36;66.73
77017;BME280;65949;53.132;17.930;2023-04-06T00:48:40;101825.84;;;-1.37;66.86
77017;BME280;65949;53.132;17.930;2023-04-06T00:51:07;101829.62;;;-1.39;66.72
77017;BME280;65949;53.132;17.930;2023-04-06T00:53:33;101828.86;;;-1.42;66.70
77017;BME280;65949;53.132;17.930;2023-04-06T00:56:01;101831.85;;;-1.47;66.83
77017;BME280;65949;53.132;17.930;2023-04-06T00:58:29;101833.98;;;-1.51;66.98
77017;BME280;65949;53.132;17.930;2023-04-06T01:01:01;101835.91;;;-1.54;67.09
77017;BME280;65949;53.132;17.930;2023-04-06T01:03:28;101838.77;;;-1.57;67.05
77017;BME280;65949;53.132;17.930;2023-04-06T01:05:55;101834.20;;;-1.61;67.19
77017;BME280;65949;53.132;17.930;2023-04-06T01:08:27;101832.87;;;-1.63;67.20
77017;BME280;65949;53.132;17.930;2023-04-06T01:10:59;101832.27;;;-1.65;67.16
77017;BME280;65949;53.132;17.930;2023-04-06T01:13:29;101830.26;;;-1.69;67.33
77017;BME280;65949;53.132;17.930;2023-04-06T01:16:00;101829.23;;;-1.72;67.60
77017;BME280;65949;53.132;17.930;2023-04-06T01:18:37;101830.70;;;-1.75;67.47
77017;BME280;65949;53.132;17.930;2023-04-06T01:21:12;101830.33;;;-1.77;67.70
77017;BME280;65949;53.132;17.930;2023-04-06T01:23:45;101829.18;;;-1.79;67.57
77017;BME280;65949;53.132;17.930;2023-04-06T01:26:13;101824.39;;;-1.82;67.55
77017;BME280;65949;53.132;17.930;2023-04-06T01:28:40;101824.23;;;-1.84;67.67
77017;BME280;65949;53.132;17.930;2023-04-06T01:31:16;101825.54;;;-1.82;67.40
77017;BME280;65949;53.132;17.930;2023-04-06T01:33:49;101822.65;;;-1.81;67.48
77017;BME280;65949;53.132;17.930;2023-04-06T01:36:20;101822.16;;;-1.79;67.44
77017;BME280;65949;53.132;17.930;2023-04-06T01:38:50;101822.64;;;-1.76;67.47
77017;BME280;65949;53.132;17.930;2023-04-06T01:41:18;101821.05;;;-1.73;67.55
77017;BME280;65949;53.132;17.930;2023-04-06T01:43:48;101819.17;;;-1.67;67.52
77017;BME280;65949;53.132;17.930;2023-04-06T01:46:16;101816.27;;;-1.65;67.24
77017;BME280;65949;53.132;17.930;2023-04-06T01:48:43;101821.27;;;-1.66;67.55
77017;BME280;65949;53.132;17.930;2023-04-06T01:51:18;101820.95;;;-1.66;67.44
77017;BME280;65949;53.132;17.930;2023-04-06T01:53:54;101823.45;;;-1.68;67.53
77017;BME280;65949;53.132;17.930;2023-04-06T01:56:23;101821.54;;;-1.67;67.60
77017;BME280;65949;53.132;17.930;2023-04-06T01:59:19;101821.67;;;-1.67;67.53
77017;BME280;65949;53.132;17.930;2023-04-06T02:01:46;101822.50;;;-1.67;67.47
77017;BME280;65949;53.132;17.930;2023-04-06T02:04:13;101825.30;;;-1.69;67.54
77017;BME280;65949;53.132;17.930;2023-04-06T02:06:41;101823.17;;;-1.72;67.56
77017;BME280;65949;53.132;17.930;2023-04-06T02:09:08;101823.66;;;-1.73;67.52
77017;BME280;65949;53.132;17.930;2023-04-06T02:11:35;101818.71;;;-1.75;67.73
77017;BME280;65949;53.132;17.930;2023-04-06T02:14:02;101818.67;;;-1.76;67.96
77017;BME280;65949;53.132;17.930;2023-04-06T02:16:31;101815.50;;;-1.78;67.86
77017;BME280;65949;53.132;17.930;2023-04-06T02:18:58;101813.11;;;-1.82;67.80
77017;BME280;65949;53.132;17.930;2023-04-06T02:21:25;101810.62;;;-1.86;68.03
77017;BME280;65949;53.132;17.930;2023-04-06T02:23:51;101808.64;;;-1.91;68.08
77017;BME280;65949;53.132;17.930;2023-04-06T02:26:18;101809.34;;;-1.94;68.22
77017;BME280;65949;53.132;17.930;2023-04-06T02:28:47;101811.67;;;-1.97;68.20
77017;BME280;65949;53.132;17.930;2023-04-06T02:31:14;101810.63;;;-2.01;68.15
77017;BME280;65949;53.132;17.930;2023-04-06T02:33:42;101812.44;;;-2.05;68.29
77017;BME280;65949;53.132;17.930;2023-04-06T02:36:09;101810.52;;;-2.10;68.52
77017;BME280;65949;53.132;17.930;2023-04-06T02:38:36;101808.76;;;-2.13;68.32
77017;BME280;65949;53.132;17.930;2023-04-06T02:41:03;101813.33;;;-2.13;68.19
77017;BME280;65949;53.132;17.930;2023-04-06T02:43:29;101814.61;;;-2.14;68.43
77017;BME280;65949;53.132;17.930;2023-04-06T02:46:06;101815.64;;;-2.12;68.23
77017;BME280;65949;53.132;17.930;2023-04-06T02:48:35;101814.47;;;-2.11;68.36
77017;BME280;65949;53.132;17.930;2023-04-06T02:51:03;101815.16;;;-2.07;68.42
77017;BME280;65949;53.132;17.930;2023-04-06T02:53:30;101815.23;;;-2.04;68.20
77017;BME280;65949;53.132;17.930;2023-04-06T02:55:57;101820.35;;;-2.03;68.20
77017;BME280;65949;53.132;17.930;2023-04-06T02:58:25;101821.87;;;-2.04;68.28
77017;BME280;65949;53.132;17.930;2023-04-06T03:00:53;101825.32;;;-2.07;68.21
77017;BME280;65949;53.132;17.930;2023-04-06T03:03:20;101827.92;;;-2.09;68.45
77017;BME280;65949;53.132;17.930;2023-04-06T03:05:48;101828.84;;;-2.09;68.46
77017;BME280;65949;53.132;17.930;2023-04-06T03:08:15;101831.84;;;-2.09;68.86
77017;BME280;65949;53.132;17.930;2023-04-06T03:10:43;101830.84;;;-2.06;68.84
77017;BME280;65949;53.132;17.930;2023-04-06T03:13:10;101834.70;;;-2.05;68.71
77017;BME280;65949;53.132;17.930;2023-04-06T03:15:46;101835.73;;;-2.05;68.82
77017;BME280;65949;53.132;17.930;2023-04-06T03:18:20;101839.77;;;-2.03;69.00
77017;BME280;65949;53.132;17.930;2023-04-06T03:20:48;101836.98;;;-2.00;69.22
77017;BME280;65949;53.132;17.930;2023-04-06T03:23:16;101838.13;;;-1.98;68.99
77017;BME280;65949;53.132;17.930;2023-04-06T03:25:43;101836.27;;;-1.95;69.08
77017;BME280;65949;53.132;17.930;2023-04-06T03:28:12;101837.00;;;-1.93;69.09
77017;BME280;65949;53.132;17.930;2023-04-06T03:30:47;101836.81;;;-1.93;69.17
77017;BME280;65949;53.132;17.930;2023-04-06T03:33:14;101839.66;;;-1.93;69.17
77017;BME280;65949;53.132;17.930;2023-04-06T03:35:48;101841.62;;;-1.92;69.22
77017;BME280;65949;53.132;17.930;2023-04-06T03:38:14;101839.92;;;-1.92;69.35
77017;BME280;65949;53.132;17.930;2023-04-06T03:40:41;101836.73;;;-1.92;69.22
77017;BME280;65949;53.132;17.930;2023-04-06T03:43:09;101839.96;;;-1.92;69.18
77017;BME280;65949;53.132;17.930;2023-04-06T03:45:36;101836.78;;;-1.91;69.26
77017;BME280;65949;53.132;17.930;2023-04-06T03:48:03;101836.86;;;-1.90;69.28
77017;BME280;65949;53.132;17.930;2023-04-06T03:50:31;101840.63;;;-1.90;69.11
77017;BME280;65949;53.132;17.930;2023-04-06T03:52:57;101838.30;;;-1.91;69.13
77017;BME280;65949;53.132;17.930;2023-04-06T03:55:24;101842.45;;;-1.90;69.04
77017;BME280;65949;53.132;17.930;2023-04-06T03:57:50;101841.98;;;-1.88;69.04
77017;BME280;65949;53.132;17.930;2023-04-06T04:00:18;101844.48;;;-1.86;69.09
77017;BME280;65949;53.132;17.930;2023-04-06T04:02:44;101844.73;;;-1.83;69.06
77017;BME280;65949;53.132;17.930;2023-04-06T04:05:11;101845.79;;;-1.80;69.00
77017;BME280;65949;53.132;17.930;2023-04-06T04:07:37;101842.48;;;-1.78;68.99
77017;BME280;65949;53.132;17.930;2023-04-06T04:10:07;101844.75;;;-1.78;68.83
77017;BME280;65949;53.132;17.930;2023-04-06T04:12:34;101847.22;;;-1.81;68.78
77017;BME280;65949;53.132;17.930;2023-04-06T04:15:00;101849.60;;;-1.86;68.78
77017;BME280;65949;53.132;17.930;2023-04-06T04:17:27;101851.49;;;-1.92;69.02
77017;BME280;65949;53.132;17.930;2023-04-06T04:19:54;101850.06;;;-1.96;68.86
77017;BME280;65949;53.132;17.930;2023-04-06T04:22:20;101848.58;;;-2.00;68.85
77017;BME280;65949;53.132;17.930;2023-04-06T04:24:47;101850.11;;;-2.06;69.06
77017;BME280;65949;53.132;17.930;2023-04-06T04:27:14;101853.77;;;-2.12;69.04
77017;BME280;65949;53.132;17.930;2023-04-06T04:29:41;101852.55;;;-2.19;69.09
77017;BME280;65949;53.132;17.930;2023-04-06T04:32:10;101854.56;;;-2.24;69.50
77017;BME280;65949;53.132;17.930;2023-04-06T04:34:38;101857.36;;;-2.25;69.46
77017;BME280;65949;53.132;17.930;2023-04-06T04:37:07;101853.11;;;-2.25;69.58
77017;BME280;65949;53.132;17.930;2023-04-06T04:39:50;101853.02;;;-2.25;69.55
77017;BME280;65949;53.132;17.930;2023-04-06T04:42:17;101853.72;;;-2.25;69.53
77017;BME280;65949;53.132;17.930;2023-04-06T04:44:48;101853.48;;;-2.26;69.48
77017;BME280;65949;53.132;17.930;2023-04-06T04:47:17;101856.02;;;-2.24;69.76
77017;BME280;65949;53.132;17.930;2023-04-06T04:49:46;101851.42;;;-2.18;69.57
77017;BME280;65949;53.132;17.930;2023-04-06T04:52:16;101860.11;;;-2.11;69.90
77017;BME280;65949;53.132;17.930;2023-04-06T04:54:51;101856.45;;;-2.04;69.53
77017;BME280;65949;53.132;17.930;2023-04-06T04:57:23;101862.43;;;-1.98;69.60
77017;BME280;65949;53.132;17.930;2023-04-06T04:59:49;101860.83;;;-1.88;69.81
77017;BME280;65949;53.132;17.930;2023-04-06T05:02:18;101864.95;;;-1.76;69.94
77017;BME280;65949;53.132;17.930;2023-04-06T05:04:52;101865.48;;;-1.63;69.84
77017;BME280;65949;53.132;17.930;2023-04-06T05:07:22;101867.67;;;-1.52;69.73
77017;BME280;65949;53.132;17.930;2023-04-06T05:09:49;101870.53;;;-1.40;69.68
77017;BME280;65949;53.132;17.930;2023-04-06T05:12:17;101864.93;;;-1.26;69.57
77017;BME280;65949;53.132;17.930;2023-04-06T05:14:58;101865.71;;;-1.14;69.36
77017;BME280;65949;53.132;17.930;2023-04-06T05:17:25;101867.70;;;-1.07;69.09
77017;BME280;65949;53.132;17.930;2023-04-06T05:19:52;101870.21;;;-1.01;69.07
77017;BME280;65949;53.132;17.930;2023-04-06T05:22:22;101869.77;;;-0.99;68.88
77017;BME280;65949;53.132;17.930;2023-04-06T05:24:56;101870.30;;;-0.97;68.97
77017;BME280;65949;53.132;17.930;2023-04-06T05:27:22;101872.06;;;-0.94;69.05
77017;BME280;65949;53.132;17.930;2023-04-06T05:29:49;101873.40;;;-0.90;68.92
77017;BME280;65949;53.132;17.930;2023-04-06T05:32:17;101874.70;;;-0.88;69.09
77017;BME280;65949;53.132;17.930;2023-04-06T05:34:49;101880.73;;;-0.83;68.92
77017;BME280;65949;53.132;17.930;2023-04-06T05:37:16;101881.08;;;-0.75;68.89
77017;BME280;65949;53.132;17.930;2023-04-06T05:39:43;101876.52;;;-0.67;68.54
77017;BME280;65949;53.132;17.930;2023-04-06T05:42:10;101872.97;;;-0.60;68.07
77017;BME280;65949;53.132;17.930;2023-04-06T05:44:48;101872.37;;;-0.56;67.91
77017;BME280;65949;53.132;17.930;2023-04-06T05:47:15;101868.59;;;-0.56;67.95
77017;BME280;65949;53.132;17.930;2023-04-06T05:49:43;101875.02;;;-0.53;67.73
77017;BME280;65949;53.132;17.930;2023-04-06T05:52:14;101879.17;;;-0.52;67.95
77017;BME280;65949;53.132;17.930;2023-04-06T05:54:43;101874.30;;;-0.53;67.90
77017;BME280;65949;53.132;17.930;2023-04-06T05:57:09;101873.59;;;-0.50;67.80
77017;BME280;65949;53.132;17.930;2023-04-06T05:59:36;101875.74;;;-0.44;67.46
77017;BME280;65949;53.132;17.930;2023-04-06T06:02:03;101879.28;;;-0.36;67.50
77017;BME280;65949;53.132;17.930;2023-04-06T06:04:31;101879.33;;;-0.28;67.48
77017;BME280;65949;53.132;17.930;2023-04-06T06:06:58;101878.77;;;-0.18;67.44
77017;BME280;65949;53.132;17.930;2023-04-06T06:09:32;101878.26;;;-0.06;67.25
77017;BME280;65949;53.132;17.930;2023-04-06T06:12:13;101874.39;;;0.04;66.91
77017;BME280;65949;53.132;17.930;2023-04-06T06:14:39;101874.80;;;0.12;66.78
77017;BME280;65949;53.132;17.930;2023-04-06T06:17:07;101869.06;;;0.19;66.79
77017;BME280;65949;53.132;17.930;2023-04-06T06:19:34;101870.80;;;0.22;66.60
77017;BME280;65949;53.132;17.930;2023-04-06T06:22:02;101871.09;;;0.26;66.94
77017;BME280;65949;53.132;17.930;2023-04-06T06:24:29;101870.64;;;0.30;66.52
77017;BME280;65949;53.132;17.930;2023-04-06T06:26:58;101870.25;;;0.32;66.65
77017;BME280;65949;53.132;17.930;2023-04-06T06:29:26;101869.88;;;0.38;66.39
77017;BME280;65949;53.132;17.930;2023-04-06T06:31:52;101873.69;;;0.44;66.30
77017;BME280;65949;53.132;17.930;2023-04-06T06:34:19;101870.55;;;0.49;66.41
77017;BME280;65949;53.132;17.930;2023-04-06T06:36:46;101869.61;;;0.53;66.36
77017;BME280;65949;53.132;17.930;2023-04-06T06:39:13;101872.17;;;0.57;66.01
77017;BME280;65949;53.132;17.930;2023-04-06T06:41:40;101877.83;;;0.60;65.82
77017;BME280;65949;53.132;17.930;2023-04-06T06:44:07;101876.13;;;0.66;65.88
77017;BME280;65949;53.132;17.930;2023-04-06T06:46:35;101880.33;;;0.77;65.62
77017;BME280;65949;53.132;17.930;2023-04-06T06:49:01;101878.32;;;0.87;65.21
77017;BME280;65949;53.132;17.930;2023-04-06T06:51:29;101874.25;;;0.95;64.75
77017;BME280;65949;53.132;17.930;2023-04-06T06:53:56;101872.77;;;1.01;64.84
77017;BME280;65949;53.132;17.930;2023-04-06T06:56:22;101878.52;;;1.05;64.40
77017;BME280;65949;53.132;17.930;2023-04-06T06:58:49;101880.15;;;1.07;64.61
77017;BME280;65949;53.132;17.930;2023-04-06T07:01:16;101876.23;;;1.17;64.71
77017;BME280;65949;53.132;17.930;2023-04-06T07:03:43;101875.91;;;1.31;64.61
77017;BME280;65949;53.132;17.930;2023-04-06T07:06:10;101871.30;;;1.45;64.41
77017;BME280;65949;53.132;17.930;2023-04-06T07:08:40;101874.84;;;1.56;64.00
77017;BME280;65949;53.132;17.930;2023-04-06T07:11:06;101875.71;;;1.72;64.04
77017;BME280;65949;53.132;17.930;2023-04-06T07:13:33;101873.52;;;1.93;63.61
77017;BME280;65949;53.132;17.930;2023-04-06T07:16:00;101871.52;;;2.18;63.12
77017;BME280;65949;53.132;17.930;2023-04-06T07:18:27;101865.73;;;2.28;62.59
77017;BME280;65949;53.132;17.930;2023-04-06T07:20:54;101863.77;;;2.32;62.64
77017;BME280;65949;53.132;17.930;2023-04-06T07:23:21;101863.36;;;2.39;62.56
77017;BME280;65949;53.132;17.930;2023-04-06T07:25:47;101867.45;;;2.48;62.04
77017;BME280;65949;53.132;17.930;2023-04-06T07:28:14;101864.98;;;2.53;62.25
77017;BME280;65949;53.132;17.930;2023-04-06T07:30:42;101864.73;;;2.66;62.21
77017;BME280;65949;53.132;17.930;2023-04-06T07:33:09;101865.69;;;2.81;61.51
77017;BME280;65949;53.132;17.930;2023-04-06T07:35:37;101861.13;;;2.93;60.94
77017;BME280;65949;53.132;17.930;2023-04-06T07:38:04;101865.04;;;2.99;60.39
77017;BME280;65949;53.132;17.930;2023-04-06T07:40:31;101859.66;;;2.99;59.79
77017;BME280;65949;53.132;17.930;2023-04-06T07:42:59;101859.73;;;2.99;59.71
77017;BME280;65949;53.132;17.930;2023-04-06T07:45:26;101863.66;;;3.02;59.91
77017;BME280;65949;53.132;17.930;2023-04-06T07:47:53;101861.48;;;3.06;59.87
77017;BME280;65949;53.132;17.930;2023-04-06T07:50:20;101867.17;;;3.10;59.70
77017;BME280;65949;53.132;17.930;2023-04-06T07:52:47;101865.22;;;3.17;59.43
77017;BME280;65949;53.132;17.930;2023-04-06T07:55:15;101860.10;;;3.22;59.12
77017;BME280;65949;53.132;17.930;2023-04-06T07:57:41;101861.23;;;3.26;58.90
77017;BME280;65949;53.132;17.930;2023-04-06T08:00:09;101860.27;;;3.30;57.82
77017;BME280;65949;53.132;17.930;2023-04-06T08:02:39;101861.41;;;3.35;56.38
77017;BME280;65949;53.132;17.930;2023-04-06T08:05:06;101854.91;;;3.37;56.57
77017;BME280;65949;53.132;17.930;2023-04-06T08:07:33;101858.99;;;3.39;56.48
77017;BME280;65949;53.132;17.930;2023-04-06T08:10:00;101855.45;;;3.44;56.51
77017;BME280;65949;53.132;17.930;2023-04-06T08:12:26;101854.02;;;3.49;56.52
77017;BME280;65949;53.132;17.930;2023-04-06T08:14:53;101854.22;;;3.58;55.62
77017;BME280;65949;53.132;17.930;2023-04-06T08:17:19;101851.20;;;3.72;55.66
77017;BME280;65949;53.132;17.930;2023-04-06T08:19:46;101849.56;;;3.80;54.52
77017;BME280;65949;53.132;17.930;2023-04-06T08:22:13;101851.97;;;3.86;54.24
77017;BME280;65949;53.132;17.930;2023-04-06T08:24:40;101851.71;;;4.02;54.06
77017;BME280;65949;53.132;17.930;2023-04-06T08:27:06;101849.63;;;4.21;53.74
77017;BME280;65949;53.132;17.930;2023-04-06T08:29:34;101852.27;;;4.42;50.93
77017;BME280;65949;53.132;17.930;2023-04-06T08:32:00;101850.61;;;4.53;49.19
77017;BME280;65949;53.132;17.930;2023-04-06T08:34:32;101849.64;;;4.54;48.56
77017;BME280;65949;53.132;17.930;2023-04-06T08:36:59;101851.10;;;4.62;47.13
77017;BME280;65949;53.132;17.930;2023-04-06T08:39:27;101847.20;;;4.64;46.22
77017;BME280;65949;53.132;17.930;2023-04-06T08:41:54;101851.24;;;4.67;48.02
77017;BME280;65949;53.132;17.930;2023-04-06T08:44:26;101849.42;;;4.78;47.80
77017;BME280;65949;53.132;17.930;2023-04-06T08:46:54;101845.81;;;4.88;47.08
77017;BME280;65949;53.132;17.930;2023-04-06T08:49:21;101849.27;;;4.92;47.26
77017;BME280;65949;53.132;17.930;2023-04-06T08:51:49;101848.06;;;4.95;45.28
77017;BME280;65949;53.132;17.930;2023-04-06T08:54:16;101848.98;;;4.94;45.69
77017;BME280;65949;53.132;17.930;2023-04-06T08:56:43;101848.70;;;4.94;45.37
77017;BME280;65949;53.132;17.930;2023-04-06T08:59:09;101847.70;;;4.95;45.63
77017;BME280;65949;53.132;17.930;2023-04-06T09:01:39;101850.35;;;4.98;45.24
77017;BME280;65949;53.132;17.930;2023-04-06T09:04:08;101849.68;;;5.08;45.91
77017;BME280;65949;53.132;17.930;2023-04-06T09:06:37;101842.48;;;5.20;45.85
77017;BME280;65949;53.132;17.930;2023-04-06T09:09:04;101838.36;;;5.36;44.41
77017;BME280;65949;53.132;17.930;2023-04-06T09:11:50;101834.25;;;5.47;45.22
77017;BME280;65949;53.132;17.930;2023-04-06T09:14:33;101831.67;;;5.59;44.01
77017;BME280;65949;53.132;17.930;2023-04-06T09:17:00;101825.82;;;5.52;44.39
77017;BME280;65949;53.132;17.930;2023-04-06T09:19:27;101827.30;;;5.54;43.94
77017;BME280;65949;53.132;17.930;2023-04-06T09:22:04;101827.31;;;5.56;44.15
77017;BME280;65949;53.132;17.930;2023-04-06T09:24:45;101828.57;;;5.61;44.33
77017;BME280;65949;53.132;17.930;2023-04-06T09:27:12;101823.81;;;5.57;43.58
77017;BME280;65949;53.132;17.930;2023-04-06T09:29:43;101817.06;;;5.64;43.66
77017;BME280;65949;53.132;17.930;2023-04-06T09:32:10;101822.08;;;5.75;44.96
77017;BME280;65949;53.132;17.930;2023-04-06T09:34:38;101817.66;;;5.94;44.89
77017;BME280;65949;53.132;17.930;2023-04-06T09:37:15;101817.79;;;6.08;43.80
77017;BME280;65949;53.132;17.930;2023-04-06T09:39:42;101813.61;;;6.10;43.07
77017;BME280;65949;53.132;17.930;2023-04-06T09:42:09;101814.60;;;6.05;42.48
77017;BME280;65949;53.132;17.930;2023-04-06T09:44:36;101811.37;;;6.07;43.13
77017;BME280;65949;53.132;17.930;2023-04-06T09:47:06;101808.73;;;6.17;42.71
77017;BME280;65949;53.132;17.930;2023-04-06T09:49:34;101804.92;;;6.21;42.66
77017;BME280;65949;53.132;17.930;2023-04-06T09:52:03;101805.70;;;6.34;42.62
77017;BME280;65949;53.132;17.930;2023-04-06T09:54:34;101806.45;;;6.53;43.28
77017;BME280;65949;53.132;17.930;2023-04-06T09:57:17;101810.19;;;6.72;42.60
77017;BME280;65949;53.132;17.930;2023-04-06T10:02:45;101804.85;;;6.81;42.01
77017;BME280;65949;53.132;17.930;2023-04-06T10:07:44;101805.52;;;6.44;41.12
77017;BME280;65949;53.132;17.930;2023-04-06T10:10:12;101808.91;;;6.41;41.76
77017;BME280;65949;53.132;17.930;2023-04-06T10:12:41;101802.71;;;6.49;42.00
77017;BME280;65949;53.132;17.930;2023-04-06T10:15:09;101800.66;;;6.71;42.21
77017;BME280;65949;53.132;17.930;2023-04-06T10:17:36;101792.92;;;6.82;41.09
77017;BME280;65949;53.132;17.930;2023-04-06T10:20:21;101791.50;;;6.72;40.61
77017;BME280;65949;53.132;17.930;2023-04-06T10:22:55;101795.23;;;6.70;41.33
77017;BME280;65949;53.132;17.930;2023-04-06T10:25:27;101790.26;;;6.77;41.23
77017;BME280;65949;53.132;17.930;2023-04-06T10:28:01;101789.94;;;6.76;40.51
77017;BME280;65949;53.132;17.930;2023-04-06T10:30:33;101788.62;;;6.69;40.86
77017;BME280;65949;53.132;17.930;2023-04-06T10:33:00;101788.46;;;6.72;41.27
77017;BME280;65949;53.132;17.930;2023-04-06T10:35:37;101782.34;;;6.83;41.17
77017;BME280;65949;53.132;17.930;2023-04-06T10:38:05;101783.52;;;6.98;41.27
77017;BME280;65949;53.132;17.930;2023-04-06T10:40:32;101777.88;;;7.13;40.32
77017;BME280;65949;53.132;17.930;2023-04-06T10:43:12;101776.68;;;7.13;40.57
77017;BME280;65949;53.132;17.930;2023-04-06T10:45:40;101774.98;;;7.20;40.92
77017;BME280;65949;53.132;17.930;2023-04-06T10:48:18;101770.41;;;7.35;40.84
77017;BME280;65949;53.132;17.930;2023-04-06T10:50:48;101771.94;;;7.35;39.94
77017;BME280;65949;53.132;17.930;2023-04-06T10:53:25;101768.27;;;7.03;39.71
77017;BME280;65949;53.132;17.930;2023-04-06T10:55:55;101762.27;;;6.96;40.83
77017;BME280;65949;53.132;17.930;2023-04-06T10:58:26;101753.42;;;6.75;40.07
77017;BME280;65949;53.132;17.930;2023-04-06T11:00:54;101758.54;;;6.57;40.39
77017;BME280;65949;53.132;17.930;2023-04-06T11:03:22;101756.85;;;6.60;40.82
77017;BME280;65949;53.132;17.930;2023-04-06T11:05:50;101752.84;;;6.75;40.90
77017;BME280;65949;53.132;17.930;2023-04-06T11:08:30;101748.63;;;6.93;40.71
77017;BME280;65949;53.132;17.930;2023-04-06T11:11:07;101745.45;;;7.08;40.34
77017;BME280;65949;53.132;17.930;2023-04-06T11:14:00;101740.41;;;7.21;40.59
77017;BME280;65949;53.132;17.930;2023-04-06T11:16:32;101735.48;;;7.37;40.93
77017;BME280;65949;53.132;17.930;2023-04-06T11:19:03;101730.31;;;7.58;41.37
77017;BME280;65949;53.132;17.930;2023-04-06T11:21:39;101729.15;;;7.67;39.47
77017;BME280;65949;53.132;17.930;2023-04-06T11:24:25;101729.39;;;7.74;39.96
77017;BME280;65949;53.132;17.930;2023-04-06T11:26:54;101723.64;;;7.86;39.33
77017;BME280;65949;53.132;17.930;2023-04-06T11:29:24;101721.33;;;7.83;38.39
77017;BME280;65949;53.132;17.930;2023-04-06T11:31:54;101723.50;;;7.79;38.39
77017;BME280;65949;53.132;17.930;2023-04-06T11:34:25;101726.82;;;7.72;38.65
77017;BME280;65949;53.132;17.930;2023-04-06T11:36:59;101724.85;;;7.66;38.17
77017;BME280;65949;53.132;17.930;2023-04-06T11:39:27;101716.19;;;7.65;38.80
77017;BME280;65949;53.132;17.930;2023-04-06T11:42:01;101719.34;;;7.64;38.97
77017;BME280;65949;53.132;17.930;2023-04-06T11:44:36;101714.09;;;7.55;39.55
77017;BME280;65949;53.132;17.930;2023-04-06T11:47:07;101718.44;;;7.55;39.90
77017;BME280;65949;53.132;17.930;2023-04-06T11:49:38;101716.75;;;7.67;39.64
77017;BME280;65949;53.132;17.930;2023-04-06T11:52:19;101706.20;;;7.64;39.49
77017;BME280;65949;53.132;17.930;2023-04-06T11:54:48;101706.08;;;7.51;39.52
77017;BME280;65949;53.132;17.930;2023-04-06T11:57:17;101701.74;;;7.48;39.99
77017;BME280;65949;53.132;17.930;2023-04-06T11:59:44;101704.93;;;7.47;39.98
77017;BME280;65949;53.132;17.930;2023-04-06T12:02:11;101692.30;;;7.45;40.22
77017;BME280;65949;53.132;17.930;2023-04-06T12:04:38;101693.14;;;7.52;40.26
77017;BME280;65949;53.132;17.930;2023-04-06T12:07:05;101676.58;;;7.58;40.42
77017;BME280;65949;53.132;17.930;2023-04-06T12:09:31;101685.35;;;7.62;40.25
77017;BME280;65949;53.132;17.930;2023-04-06T12:11:58;101688.08;;;7.50;40.55
77017;BME280;65949;53.132;17.930;2023-04-06T12:14:25;101686.00;;;7.50;40.90
77017;BME280;65949;53.132;17.930;2023-04-06T12:16:51;101685.85;;;7.58;40.32
77017;BME280;65949;53.132;17.930;2023-04-06T12:19:18;101682.38;;;7.58;40.58
77017;BME280;65949;53.132;17.930;2023-04-06T12:21:45;101678.27;;;7.49;40.41
77017;BME280;65949;53.132;17.930;2023-04-06T12:24:11;101673.98;;;7.51;40.61
77017;BME280;65949;53.132;17.930;2023-04-06T12:26:38;101679.81;;;7.66;40.73
77017;BME280;65949;53.132;17.930;2023-04-06T12:29:05;101673.60;;;7.85;40.45
77017;BME280;65949;53.132;17.930;2023-04-06T12:31:37;101670.97;;;7.96;40.18
77017;BME280;65949;53.132;17.930;2023-04-06T12:34:05;101666.55;;;8.02;40.01
77017;BME280;65949;53.132;17.930;2023-04-06T12:36:32;101661.33;;;7.93;40.05
77017;BME280;65949;53.132;17.930;2023-04-06T12:38:59;101660.16;;;8.01;40.23
77017;BME280;65949;53.132;17.930;2023-04-06T12:41:27;101659.38;;;8.17;40.13
77017;BME280;65949;53.132;17.930;2023-04-06T12:43:55;101655.41;;;8.34;40.08
77017;BME280;65949;53.132;17.930;2023-04-06T12:46:23;101649.27;;;8.46;39.58
77017;BME280;65949;53.132;17.930;2023-04-06T12:48:51;101649.23;;;8.55;39.52
77017;BME280;65949;53.132;17.930;2023-04-06T12:51:19;101643.06;;;8.60;39.75
77017;BME280;65949;53.132;17.930;2023-04-06T12:53:46;101638.97;;;8.69;39.18
77017;BME280;65949;53.132;17.930;2023-04-06T12:56:15;101636.73;;;8.71;38.68
77017;BME280;65949;53.132;17.930;2023-04-06T12:58:44;101628.26;;;8.74;38.75
77017;BME280;65949;53.132;17.930;2023-04-06T13:01:11;101623.09;;;8.85;38.92